sensor_id;sensor_type;location;lat;lon;timestamp;temperature;humidity
16958;DHT22;8595;52.542;11.974;2023-04-09T00:01:07;6.20;99.90
16958;DHT22;8595;52.542;11.974;2023-04-09T00:03:34;6.30;99.90
16958;DHT22;8595;52.542;11.974;2023-04-09T00:06:01;6.20;99.90
16958;DHT22;8595;52.542;11.974;2023-04-09T00:08:29;6.10;99.90
16958;DHT22;8595;52.542;11.974;2023-04-09T00:10:57;6.10;99.90
16958;DHT22;8595;52.542;11.974;2023-04-09T00:13:24;6.10;99.90
16958;DHT22;8595;52.542;11.974;2023-04-09T00:15:52;6.10;99.90
16958;DHT22;8595;52.542;11.974;2023-04-09T00:18:18;6.00;99.90
16958;DHT22;8595;52.542;11.974;2023-04-09T00:20:45;6.00;99.90
16958;DHT22;8595;52.542;11.974;2023-04-09T00:23:12;6.10;99.90
16958;DHT22;8595;52.542;11.974;2023-04-09T00:25:40;6.10;99.90
16958;DHT22;8595;52.542;11.974;2023-04-09T00:28:06;6.10;99.90
16958;DHT22;8595;52.542;11.974;2023-04-09T00:30:33;6.00;99.90
16958;DHT22;8595;52.542;11.974;2023-04-09T00:33:00;6.00;99.90
16958;DHT22;8595;52.542;11.974;2023-04-09T00:35:26;6.10;99.90
16958;DHT22;8595;52.542;11.974;2023-04-09T00:37:53;6.00;99.90
16958;DHT22;8595;52.542;11.974;2023-04-09T00:40:20;6.20;99.90
16958;DHT22;8595;52.542;11.974;2023-04-09T00:42:48;6.20;99.90
16958;DHT22;8595;52.542;11.974;2023-04-09T00:45:15;6.30;99.90
16958;DHT22;8595;52.542;11.974;2023-04-09T00:47:41;6.30;99.90
16958;DHT22;8595;52.542;11.974;2023-04-09T00:50:10;6.30;99.90
16958;DHT22;8595;52.542;11.974;2023-04-09T00:52:37;6.30;99.90
16958;DHT22;8595;52.542;11.974;2023-04-09T00:55:04;6.30;99.90
16958;DHT22;8595;52.542;11.974;2023-04-09T00:57:31;6.50;99.90
16958;DHT22;8595;52.542;11.974;2023-04-09T01:00:00;6.50;99.90
16958;DHT22;8595;52.542;11.974;2023-04-09T01:02:27;6.50;99.90
16958;DHT22;8595;52.542;11.974;2023-04-09T01:04:55;6.50;99.90
16958;DHT22;8595;52.542;11.974;2023-04-09T01:07:30;6.60;99.90
16958;DHT22;8595;52.542;11.974;2023-04-09T01:10:10;6.50;99.90
16958;DHT22;8595;52.542;11.974;2023-04-09T01:12:46;6.50;99.90
16958;DHT22;8595;52.542;11.974;2023-04-09T01:15:22;6.50;99.90
16958;DHT22;8595;52.542;11.974;2023-04-09T01:17:53;6.60;99.90
16958;DHT22;8595;52.542;11.974;2023-04-09T01:20:29;6.70;99.90
16958;DHT22;8595;52.542;11.974;2023-04-09T01:23:06;6.70;99.90
16958;DHT22;8595;52.542;11.974;2023-04-09T01:25:44;6.80;99.90
16958;DHT22;8595;52.542;11.974;2023-04-09T01:28:21;6.80;99.90
16958;DHT22;8595;52.542;11.974;2023-04-09T01:30:50;6.80;99.90
16958;DHT22;8595;52.542;11.974;2023-04-09T01:33:19;6.80;99.90
16958;DHT22;8595;52.542;11.974;2023-04-09T01:35:48;6.80;99.90
16958;DHT22;8595;52.542;11.974;2023-04-09T01:38:18;6.80;99.90
16958;DHT22;8595;52.542;11.974;2023-04-09T01:40:46;6.90;99.90
16958;DHT22;8595;52.542;11.974;2023-04-09T01:43:14;7.00;99.90
16958;DHT22;8595;52.542;11.974;2023-04-09T01:45:43;7.00;99.90
16958;DHT22;8595;52.542;11.974;2023-04-09T01:48:10;6.90;99.90
16958;DHT22;8595;52.542;11.974;2023-04-09T01:50:38;7.00;99.90
16958;DHT22;8595;52.542;11.974;2023-04-09T01:53:05;6.90;99.90
16958;DHT22;8595;52.542;11.974;2023-04-09T01:55:32;6.90;99.90
16958;DHT22;8595;52.542;11.974;2023-04-09T01:57:59;7.00;99.90
16958;DHT22;8595;52.542;11.974;2023-04-09T02:00:30;7.00;99.90
16958;DHT22;8595;52.542;11.974;2023-04-09T02:03:05;7.00;99.90
16958;DHT22;8595;52.542;11.974;2023-04-09T02:05:36;7.00;99.90
16958;DHT22;8595;52.542;11.974;2023-04-09T02:08:06;7.10;99.90
16958;DHT22;8595;52.542;11.974;2023-04-09T02:10:34;7.00;99.90
16958;DHT22;8595;52.542;11.974;2023-04-09T02:13:04;6.80;99.90
16958;DHT22;8595;52.542;11.974;2023-04-09T02:15:33;6.60;99.90
16958;DHT22;8595;52.542;11.974;2023-04-09T02:18:03;6.60;99.90
16958;DHT22;8595;52.542;11.974;2023-04-09T02:20:30;6.70;99.90
16958;DHT22;8595;52.542;11.974;2023-04-09T02:22:56;6.70;99.90
16958;DHT22;8595;52.542;11.974;2023-04-09T02:25:25;6.70;99.90
16958;DHT22;8595;52.542;11.974;2023-04-09T02:27:52;6.70;99.90
16958;DHT22;8595;52.542;11.974;2023-04-09T02:30:19;6.60;99.90
16958;DHT22;8595;52.542;11.974;2023-04-09T02:32:46;6.50;99.90
16958;DHT22;8595;52.542;11.974;2023-04-09T02:35:14;6.40;99.90
16958;DHT22;8595;52.542;11.974;2023-04-09T02:37:40;6.40;99.90
16958;DHT22;8595;52.542;11.974;2023-04-09T02:40:09;6.50;99.90
16958;DHT22;8595;52.542;11.974;2023-04-09T02:42:36;6.30;99.90
16958;DHT22;8595;52.542;11.974;2023-04-09T02:45:03;6.10;99.90
16958;DHT22;8595;52.542;11.974;2023-04-09T02:47:30;6.20;99.90
16958;DHT22;8595;52.542;11.974;2023-04-09T02:49:57;6.20;99.90
16958;DHT22;8595;52.542;11.974;2023-04-09T02:52:25;6.20;99.90
16958;DHT22;8595;52.542;11.974;2023-04-09T02:54:52;6.20;99.90
16958;DHT22;8595;52.542;11.974;2023-04-09T02:57:19;6.20;99.90
16958;DHT22;8595;52.542;11.974;2023-04-09T02:59:45;6.10;99.90
16958;DHT22;8595;52.542;11.974;2023-04-09T03:02:12;6.10;99.90
16958;DHT22;8595;52.542;11.974;2023-04-09T03:04:39;6.10;99.90
16958;DHT22;8595;52.542;11.974;2023-04-09T03:07:06;6.20;99.90
16958;DHT22;8595;52.542;11.974;2023-04-09T03:09:34;6.30;99.90
16958;DHT22;8595;52.542;11.974;2023-04-09T03:12:01;6.30;99.90
16958;DHT22;8595;52.542;11.974;2023-04-09T03:14:27;6.20;99.90
16958;DHT22;8595;52.542;11.974;2023-04-09T03:16:54;6.00;99.90
16958;DHT22;8595;52.542;11.974;2023-04-09T03:19:21;6.10;99.90
16958;DHT22;8595;52.542;11.974;2023-04-09T03:21:47;6.10;99.90
16958;DHT22;8595;52.542;11.974;2023-04-09T03:24:16;6.20;99.90
16958;DHT22;8595;52.542;11.974;2023-04-09T03:26:44;6.30;99.90
16958;DHT22;8595;52.542;11.974;2023-04-09T03:29:11;6.40;99.90
16958;DHT22;8595;52.542;11.974;2023-04-09T03:31:38;6.50;99.90
16958;DHT22;8595;52.542;11.974;2023-04-09T03:34:05;6.50;99.90
16958;DHT22;8595;52.542;11.974;2023-04-09T03:36:32;6.50;99.90
16958;DHT22;8595;52.542;11.974;2023-04-09T03:38:59;6.50;99.90
16958;DHT22;8595;52.542;11.974;2023-04-09T03:41:26;6.50;99.90
16958;DHT22;8595;52.542;11.974;2023-04-09T03:43:54;6.50;99.90
16958;DHT22;8595;52.542;11.974;2023-04-09T03:46:21;6.50;99.90
16958;DHT22;8595;52.542;11.974;2023-04-09T03:48:48;6.60;99.90
16958;DHT22;8595;52.542;11.974;2023-04-09T03:51:15;6.70;99.90
16958;DHT22;8595;52.542;11.974;2023-04-09T03:53:43;6.70;99.90
16958;DHT22;8595;52.542;11.974;2023-04-09T03:56:10;6.70;99.90
16958;DHT22;8595;52.542;11.974;2023-04-09T03:58:38;6.70;99.90
16958;DHT22;8595;52.542;11.974;2023-04-09T04:01:07;6.70;99.90
16958;DHT22;8595;52.542;11.974;2023-04-09T04:03:33;6.60;99.90
16958;DHT22;8595;52.542;11.974;2023-04-09T04:06:00;6.50;99.90
16958;DHT22;8595;52.542;11.974;2023-04-09T04:08:28;6.50;99.90
16958;DHT22;8595;52.542;11.974;2023-04-09T04:10:55;6.60;99.90
16958;DHT22;8595;52.542;11.974;2023-04-09T04:13:21;6.60;99.90
16958;DHT22;8595;52.542;11.974;2023-04-09T04:15:48;6.60;99.90
16958;DHT22;8595;52.542;11.974;2023-04-09T04:18:16;6.70;99.90
16958;DHT22;8595;52.542;11.974;2023-04-09T04:20:43;6.70;99.90
16958;DHT22;8595;52.542;11.974;2023-04-09T04:23:09;6.80;99.90
16958;DHT22;8595;52.542;11.974;2023-04-09T04:25:39;6.80;99.90
16958;DHT22;8595;52.542;11.974;2023-04-09T04:28:05;6.70;99.90
16958;DHT22;8595;52.542;11.974;2023-04-09T04:30:32;6.60;99.90
16958;DHT22;8595;52.542;11.974;2023-04-09T04:32:59;6.60;99.90
16958;DHT22;8595;52.542;11.974;2023-04-09T04:35:27;6.60;99.90
16958;DHT22;8595;52.542;11.974;2023-04-09T04:37:54;6.50;99.90
16958;DHT22;8595;52.542;11.974;2023-04-09T04:40:21;6.40;99.90
16958;DHT22;8595;52.542;11.974;2023-04-09T04:42:48;6.30;99.90
16958;DHT22;8595;52.542;11.974;2023-04-09T04:45:15;6.20;99.90
16958;DHT22;8595;52.542;11.974;2023-04-09T04:47:41;6.20;99.90
16958;DHT22;8595;52.542;11.974;2023-04-09T04:50:09;6.20;99.90
16958;DHT22;8595;52.542;11.974;2023-04-09T04:52:37;6.20;99.90
16958;DHT22;8595;52.542;11.974;2023-04-09T04:55:05;6.10;99.90
16958;DHT22;8595;52.542;11.974;2023-04-09T04:57:32;6.10;99.90
16958;DHT22;8595;52.542;11.974;2023-04-09T04:59:59;6.10;99.90
16958;DHT22;8595;52.542;11.974;2023-04-09T05:02:25;6.20;99.90
16958;DHT22;8595;52.542;11.974;2023-04-09T05:04:52;6.30;99.90
16958;DHT22;8595;52.542;11.974;2023-04-09T05:07:18;6.30;99.90
16958;DHT22;8595;52.542;11.974;2023-04-09T05:09:46;6.40;99.90
16958;DHT22;8595;52.542;11.974;2023-04-09T05:12:13;6.40;99.90
16958;DHT22;8595;52.542;11.974;2023-04-09T05:14:42;6.50;99.90
16958;DHT22;8595;52.542;11.974;2023-04-09T05:17:09;6.60;99.90
16958;DHT22;8595;52.542;11.974;2023-04-09T05:19:35;6.60;99.90
16958;DHT22;8595;52.542;11.974;2023-04-09T05:22:02;6.60;99.90
16958;DHT22;8595;52.542;11.974;2023-04-09T05:24:29;6.50;99.90
16958;DHT22;8595;52.542;11.974;2023-04-09T05:26:57;6.60;99.90
16958;DHT22;8595;52.542;11.974;2023-04-09T05:29:24;6.60;99.90
16958;DHT22;8595;52.542;11.974;2023-04-09T05:31:50;6.60;99.90
16958;DHT22;8595;52.542;11.974;2023-04-09T05:34:17;6.50;99.90
16958;DHT22;8595;52.542;11.974;2023-04-09T05:36:44;6.60;99.90
16958;DHT22;8595;52.542;11.974;2023-04-09T05:39:11;6.70;99.90
16958;DHT22;8595;52.542;11.974;2023-04-09T05:41:37;6.70;99.90
16958;DHT22;8595;52.542;11.974;2023-04-09T05:44:06;6.80;99.90
16958;DHT22;8595;52.542;11.974;2023-04-09T05:46:33;6.90;99.90
16958;DHT22;8595;52.542;11.974;2023-04-09T05:48:59;6.90;99.90
16958;DHT22;8595;52.542;11.974;2023-04-09T05:51:26;6.70;99.90
16958;DHT22;8595;52.542;11.974;2023-04-09T05:53:53;6.60;99.90
16958;DHT22;8595;52.542;11.974;2023-04-09T05:56:20;6.70;99.90
16958;DHT22;8595;52.542;11.974;2023-04-09T05:58:50;6.70;99.90
16958;DHT22;8595;52.542;11.974;2023-04-09T06:01:18;6.80;99.90
16958;DHT22;8595;52.542;11.974;2023-04-09T06:03:45;6.80;99.90
16958;DHT22;8595;52.542;11.974;2023-04-09T06:06:12;6.70;99.90
16958;DHT22;8595;52.542;11.974;2023-04-09T06:08:39;6.80;99.90
16958;DHT22;8595;52.542;11.974;2023-04-09T06:11:08;6.80;99.90
16958;DHT22;8595;52.542;11.974;2023-04-09T06:13:35;6.80;99.90
16958;DHT22;8595;52.542;11.974;2023-04-09T06:16:03;6.80;99.90
16958;DHT22;8595;52.542;11.974;2023-04-09T06:18:31;6.80;99.90
16958;DHT22;8595;52.542;11.974;2023-04-09T06:21:01;6.80;99.90
16958;DHT22;8595;52.542;11.974;2023-04-09T06:23:28;6.90;99.90
16958;DHT22;8595;52.542;11.974;2023-04-09T06:25:55;7.00;99.90
16958;DHT22;8595;52.542;11.974;2023-04-09T06:28:21;7.00;99.90
16958;DHT22;8595;52.542;11.974;2023-04-09T06:30:48;7.10;99.90
16958;DHT22;8595;52.542;11.974;2023-04-09T06:33:15;7.10;99.90
16958;DHT22;8595;52.542;11.974;2023-04-09T06:35:43;7.10;99.90
16958;DHT22;8595;52.542;11.974;2023-04-09T06:38:10;7.20;99.90
16958;DHT22;8595;52.542;11.974;2023-04-09T06:40:38;7.20;99.90
16958;DHT22;8595;52.542;11.974;2023-04-09T06:43:05;7.20;99.90
16958;DHT22;8595;52.542;11.974;2023-04-09T06:45:32;7.20;99.90
16958;DHT22;8595;52.542;11.974;2023-04-09T06:47:59;7.20;99.90
16958;DHT22;8595;52.542;11.974;2023-04-09T06:50:26;7.10;99.90
16958;DHT22;8595;52.542;11.974;2023-04-09T06:52:54;6.90;99.90
16958;DHT22;8595;52.542;11.974;2023-04-09T06:55:21;6.90;99.90
16958;DHT22;8595;52.542;11.974;2023-04-09T06:57:48;6.80;99.90
16958;DHT22;8595;52.542;11.974;2023-04-09T07:00:14;6.70;99.90
16958;DHT22;8595;52.542;11.974;2023-04-09T07:02:41;6.80;99.90
16958;DHT22;8595;52.542;11.974;2023-04-09T07:05:08;7.10;99.90
16958;DHT22;8595;52.542;11.974;2023-04-09T07:07:35;7.20;99.90
16958;DHT22;8595;52.542;11.974;2023-04-09T07:10:05;7.10;99.90
16958;DHT22;8595;52.542;11.974;2023-04-09T07:12:33;7.30;99.90
16958;DHT22;8595;52.542;11.974;2023-04-09T07:15:01;7.30;99.90
16958;DHT22;8595;52.542;11.974;2023-04-09T07:17:29;7.30;99.90
16958;DHT22;8595;52.542;11.974;2023-04-09T07:19:56;7.20;99.90
16958;DHT22;8595;52.542;11.974;2023-04-09T07:22:23;7.30;99.90
16958;DHT22;8595;52.542;11.974;2023-04-09T07:24:51;7.50;99.90
16958;DHT22;8595;52.542;11.974;2023-04-09T07:27:21;7.70;99.90
16958;DHT22;8595;52.542;11.974;2023-04-09T07:29:48;7.80;99.90
16958;DHT22;8595;52.542;11.974;2023-04-09T07:32:15;8.00;99.90
16958;DHT22;8595;52.542;11.974;2023-04-09T07:34:42;8.10;99.90
16958;DHT22;8595;52.542;11.974;2023-04-09T07:37:09;8.20;99.90
16958;DHT22;8595;52.542;11.974;2023-04-09T07:39:36;8.20;99.90
16958;DHT22;8595;52.542;11.974;2023-04-09T07:42:02;8.30;99.90
16958;DHT22;8595;52.542;11.974;2023-04-09T07:44:34;8.40;99.90
16958;DHT22;8595;52.542;11.974;2023-04-09T07:47:02;8.40;99.90
16958;DHT22;8595;52.542;11.974;2023-04-09T07:49:29;8.50;99.90
16958;DHT22;8595;52.542;11.974;2023-04-09T07:51:56;8.60;99.90
16958;DHT22;8595;52.542;11.974;2023-04-09T07:54:25;8.50;99.90
16958;DHT22;8595;52.542;11.974;2023-04-09T07:56:53;8.50;99.90
16958;DHT22;8595;52.542;11.974;2023-04-09T07:59:21;8.60;99.90
16958;DHT22;8595;52.542;11.974;2023-04-09T08:01:49;8.70;99.90
16958;DHT22;8595;52.542;11.974;2023-04-09T08:04:16;8.70;99.90
16958;DHT22;8595;52.542;11.974;2023-04-09T08:06:42;8.60;99.90
16958;DHT22;8595;52.542;11.974;2023-04-09T08:09:12;8.60;99.90
16958;DHT22;8595;52.542;11.974;2023-04-09T08:11:39;8.60;99.90
16958;DHT22;8595;52.542;11.974;2023-04-09T08:14:05;8.70;99.90
16958;DHT22;8595;52.542;11.974;2023-04-09T08:16:37;8.90;99.90
16958;DHT22;8595;52.542;11.974;2023-04-09T08:19:06;9.00;99.90
16958;DHT22;8595;52.542;11.974;2023-04-09T08:21:32;8.80;99.90
16958;DHT22;8595;52.542;11.974;2023-04-09T08:24:00;8.70;99.90
16958;DHT22;8595;52.542;11.974;2023-04-09T08:26:29;8.80;99.90
16958;DHT22;8595;52.542;11.974;2023-04-09T08:28:55;8.70;99.90
16958;DHT22;8595;52.542;11.974;2023-04-09T08:31:22;8.80;99.90
16958;DHT22;8595;52.542;11.974;2023-04-09T08:33:49;9.00;99.90
16958;DHT22;8595;52.542;11.974;2023-04-09T08:36:19;8.80;99.90
16958;DHT22;8595;52.542;11.974;2023-04-09T08:38:46;8.80;99.90
16958;DHT22;8595;52.542;11.974;2023-04-09T08:41:23;9.00;99.90
16958;DHT22;8595;52.542;11.974;2023-04-09T08:43:51;9.30;99.90
16958;DHT22;8595;52.542;11.974;2023-04-09T08:46:19;9.80;99.90
16958;DHT22;8595;52.542;11.974;2023-04-09T08:48:47;10.10;99.90
16958;DHT22;8595;52.542;11.974;2023-04-09T08:51:14;11.20;99.90
16958;DHT22;8595;52.542;11.974;2023-04-09T08:53:45;12.30;99.90
16958;DHT22;8595;52.542;11.974;2023-04-09T08:56:12;12.90;99.90
16958;DHT22;8595;52.542;11.974;2023-04-09T08:58:42;13.90;99.90
16958;DHT22;8595;52.542;11.974;2023-04-09T09:01:22;14.50;99.90
16958;DHT22;8595;52.542;11.974;2023-04-09T09:03:55;15.30;99.90
16958;DHT22;8595;52.542;11.974;2023-04-09T09:06:22;15.90;99.90
16958;DHT22;8595;52.542;11.974;2023-04-09T09:09:02;16.00;99.90
16958;DHT22;8595;52.542;11.974;2023-04-09T09:11:29;15.70;99.90
16958;DHT22;8595;52.542;11.974;2023-04-09T09:13:57;15.80;99.90
16958;DHT22;8595;52.542;11.974;2023-04-09T09:16:23;16.20;99.90
16958;DHT22;8595;52.542;11.974;2023-04-09T09:18:50;16.60;99.90
16958;DHT22;8595;52.542;11.974;2023-04-09T09:21:17;16.90;99.90
16958;DHT22;8595;52.542;11.974;2023-04-09T09:23:45;17.00;99.90
16958;DHT22;8595;52.542;11.974;2023-04-09T09:26:15;17.20;99.90
16958;DHT22;8595;52.542;11.974;2023-04-09T09:28:43;17.60;99.90
16958;DHT22;8595;52.542;11.974;2023-04-09T09:31:11;17.60;99.90
16958;DHT22;8595;52.542;11.974;2023-04-09T09:33:38;17.50;99.90
16958;DHT22;8595;52.542;11.974;2023-04-09T09:36:05;17.40;99.90
16958;DHT22;8595;52.542;11.974;2023-04-09T09:38:33;17.50;99.90
16958;DHT22;8595;52.542;11.974;2023-04-09T09:41:16;18.00;99.90
16958;DHT22;8595;52.542;11.974;2023-04-09T09:43:44;18.20;99.90
16958;DHT22;8595;52.542;11.974;2023-04-09T09:46:11;18.60;99.90
16958;DHT22;8595;52.542;11.974;2023-04-09T09:48:38;18.90;99.90
16958;DHT22;8595;52.542;11.974;2023-04-09T09:51:08;18.90;99.90
16958;DHT22;8595;52.542;11.974;2023-04-09T09:53:36;19.20;99.90
16958;DHT22;8595;52.542;11.974;2023-04-09T09:56:05;18.80;99.90
16958;DHT22;8595;52.542;11.974;2023-04-09T09:58:37;18.90;99.90
16958;DHT22;8595;52.542;11.974;2023-04-09T10:01:07;18.90;99.90
16958;DHT22;8595;52.542;11.974;2023-04-09T10:03:37;19.00;99.90
16958;DHT22;8595;52.542;11.974;2023-04-09T10:06:05;19.10;99.90
16958;DHT22;8595;52.542;11.974;2023-04-09T10:08:33;19.40;99.90
16958;DHT22;8595;52.542;11.974;2023-04-09T10:11:02;19.70;99.90
16958;DHT22;8595;52.542;11.974;2023-04-09T10:13:36;19.80;99.90
16958;DHT22;8595;52.542;11.974;2023-04-09T10:16:04;19.80;99.90
16958;DHT22;8595;52.542;11.974;2023-04-09T10:18:32;19.70;99.90
16958;DHT22;8595;52.542;11.974;2023-04-09T10:21:04;19.40;99.90
16958;DHT22;8595;52.542;11.974;2023-04-09T10:23:40;18.70;99.90
16958;DHT22;8595;52.542;11.974;2023-04-09T10:26:08;18.60;99.90
16958;DHT22;8595;52.542;11.974;2023-04-09T10:28:37;19.20;99.90
16958;DHT22;8595;52.542;11.974;2023-04-09T10:31:04;19.80;99.90
16958;DHT22;8595;52.542;11.974;2023-04-09T10:33:32;19.70;99.90
16958;DHT22;8595;52.542;11.974;2023-04-09T10:36:03;19.70;99.90
16958;DHT22;8595;52.542;11.974;2023-04-09T10:38:34;20.10;99.90
16958;DHT22;8595;52.542;11.974;2023-04-09T10:41:13;20.20;99.90
16958;DHT22;8595;52.542;11.974;2023-04-09T10:43:42;20.20;99.90
16958;DHT22;8595;52.542;11.974;2023-04-09T10:46:24;20.10;99.90
16958;DHT22;8595;52.542;11.974;2023-04-09T10:49:08;20.20;99.90
16958;DHT22;8595;52.542;11.974;2023-04-09T10:51:35;20.30;99.90
16958;DHT22;8595;52.542;11.974;2023-04-09T10:54:03;20.20;99.90
16958;DHT22;8595;52.542;11.974;2023-04-09T10:56:30;19.20;99.90
16958;DHT22;8595;52.542;11.974;2023-04-09T10:58:58;19.00;99.90
16958;DHT22;8595;52.542;11.974;2023-04-09T11:01:25;18.60;99.90
16958;DHT22;8595;52.542;11.974;2023-04-09T11:04:07;18.10;99.90
16958;DHT22;8595;52.542;11.974;2023-04-09T11:06:35;18.50;99.90
16958;DHT22;8595;52.542;11.974;2023-04-09T11:09:02;19.20;99.90
16958;DHT22;8595;52.542;11.974;2023-04-09T11:11:29;19.70;99.90
16958;DHT22;8595;52.542;11.974;2023-04-09T11:13:59;19.70;99.90
16958;DHT22;8595;52.542;11.974;2023-04-09T11:16:28;19.90;99.90
16958;DHT22;8595;52.542;11.974;2023-04-09T11:18:55;20.10;99.90
16958;DHT22;8595;52.542;11.974;2023-04-09T11:21:25;20.60;99.90
16958;DHT22;8595;52.542;11.974;2023-04-09T11:23:53;20.70;99.90
16958;DHT22;8595;52.542;11.974;2023-04-09T11:26:22;20.80;99.90
16958;DHT22;8595;52.542;11.974;2023-04-09T11:28:49;21.10;99.90
16958;DHT22;8595;52.542;11.974;2023-04-09T11:31:17;21.40;99.90
16958;DHT22;8595;52.542;11.974;2023-04-09T11:33:45;21.70;99.90
16958;DHT22;8595;52.542;11.974;2023-04-09T11:36:11;21.40;99.90
16958;DHT22;8595;52.542;11.974;2023-04-09T11:38:38;21.70;99.90
16958;DHT22;8595;52.542;11.974;2023-04-09T11:41:05;22.10;99.90
16958;DHT22;8595;52.542;11.974;2023-04-09T11:43:37;22.50;99.90
16958;DHT22;8595;52.542;11.974;2023-04-09T11:46:04;22.30;99.90
16958;DHT22;8595;52.542;11.974;2023-04-09T11:48:33;21.70;99.90
16958;DHT22;8595;52.542;11.974;2023-04-09T11:51:01;21.60;99.90
16958;DHT22;8595;52.542;11.974;2023-04-09T11:53:30;21.60;99.90
16958;DHT22;8595;52.542;11.974;2023-04-09T11:55:57;21.40;99.90
16958;DHT22;8595;52.542;11.974;2023-04-09T11:58:25;21.60;99.90
16958;DHT22;8595;52.542;11.974;2023-04-09T12:00:52;22.20;99.90
16958;DHT22;8595;52.542;11.974;2023-04-09T12:03:26;22.30;99.90
16958;DHT22;8595;52.542;11.974;2023-04-09T12:05:55;22.40;99.90
16958;DHT22;8595;52.542;11.974;2023-04-09T12:08:23;22.60;99.90
16958;DHT22;8595;52.542;11.974;2023-04-09T12:10:50;22.40;99.90
16958;DHT22;8595;52.542;11.974;2023-04-09T12:13:18;22.50;99.90
16958;DHT22;8595;52.542;11.974;2023-04-09T12:15:47;22.70;99.90
16958;DHT22;8595;52.542;11.974;2023-04-09T12:18:14;22.90;99.90
16958;DHT22;8595;52.542;11.974;2023-04-09T12:20:42;23.20;99.90
16958;DHT22;8595;52.542;11.974;2023-04-09T12:23:11;23.10;99.90
16958;DHT22;8595;52.542;11.974;2023-04-09T12:25:39;22.90;99.90
16958;DHT22;8595;52.542;11.974;2023-04-09T12:28:08;23.40;99.90
16958;DHT22;8595;52.542;11.974;2023-04-09T12:30:35;23.60;99.90
16958;DHT22;8595;52.542;11.974;2023-04-09T12:33:02;24.00;99.90
16958;DHT22;8595;52.542;11.974;2023-04-09T12:35:29;23.60;99.90
16958;DHT22;8595;52.542;11.974;2023-04-09T12:37:56;23.80;99.90
16958;DHT22;8595;52.542;11.974;2023-04-09T12:40:25;23.20;99.90
16958;DHT22;8595;52.542;11.974;2023-04-09T12:42:52;23.00;99.90
16958;DHT22;8595;52.542;11.974;2023-04-09T12:45:19;22.80;99.90
16958;DHT22;8595;52.542;11.974;2023-04-09T12:47:47;23.20;99.90
16958;DHT22;8595;52.542;11.974;2023-04-09T12:50:14;23.40;99.90
16958;DHT22;8595;52.542;11.974;2023-04-09T12:52:42;23.70;99.90
16958;DHT22;8595;52.542;11.974;2023-04-09T12:55:10;23.80;99.90
16958;DHT22;8595;52.542;11.974;2023-04-09T12:57:40;23.80;99.90
16958;DHT22;8595;52.542;11.974;2023-04-09T13:00:08;23.50;99.90
16958;DHT22;8595;52.542;11.974;2023-04-09T13:02:34;23.60;99.90
16958;DHT22;8595;52.542;11.974;2023-04-09T13:05:01;23.60;99.90
16958;DHT22;8595;52.542;11.974;2023-04-09T13:07:29;23.50;99.90
16958;DHT22;8595;52.542;11.974;2023-04-09T13:09:56;23.90;99.90
16958;DHT22;8595;52.542;11.974;2023-04-09T13:12:23;24.10;99.90
16958;DHT22;8595;52.542;11.974;2023-04-09T13:14:53;24.50;99.90
16958;DHT22;8595;52.542;11.974;2023-04-09T13:17:20;24.50;99.90
16958;DHT22;8595;52.542;11.974;2023-04-09T13:19:48;24.80;99.90
16958;DHT22;8595;52.542;11.974;2023-04-09T13:22:14;24.90;99.90
16958;DHT22;8595;52.542;11.974;2023-04-09T13:24:41;25.00;99.90
16958;DHT22;8595;52.542;11.974;2023-04-09T13:27:09;25.30;99.90
16958;DHT22;8595;52.542;11.974;2023-04-09T13:29:36;25.50;99.90
16958;DHT22;8595;52.542;11.974;2023-04-09T13:32:05;25.40;99.90
16958;DHT22;8595;52.542;11.974;2023-04-09T13:34:33;25.30;99.90
16958;DHT22;8595;52.542;11.974;2023-04-09T13:37:00;25.30;99.90
16958;DHT22;8595;52.542;11.974;2023-04-09T13:39:27;24.90;99.90
16958;DHT22;8595;52.542;11.974;2023-04-09T13:41:54;24.80;99.90
16958;DHT22;8595;52.542;11.974;2023-04-09T13:44:21;24.90;99.90
16958;DHT22;8595;52.542;11.974;2023-04-09T13:46:48;25.30;99.90
16958;DHT22;8595;52.542;11.974;2023-04-09T13:49:16;25.60;99.90
16958;DHT22;8595;52.542;11.974;2023-04-09T13:51:43;25.50;99.90
16958;DHT22;8595;52.542;11.974;2023-04-09T13:54:10;25.60;99.90
16958;DHT22;8595;52.542;11.974;2023-04-09T13:56:37;25.30;99.90
16958;DHT22;8595;52.542;11.974;2023-04-09T13:59:04;25.40;99.90
16958;DHT22;8595;52.542;11.974;2023-04-09T14:01:31;25.40;99.90
16958;DHT22;8595;52.542;11.974;2023-04-09T14:03:57;25.30;99.90
16958;DHT22;8595;52.542;11.974;2023-04-09T14:06:25;24.90;99.90
16958;DHT22;8595;52.542;11.974;2023-04-09T14:08:52;25.20;99.90
16958;DHT22;8595;52.542;11.974;2023-04-09T14:11:19;24.80;99.90
16958;DHT22;8595;52.542;11.974;2023-04-09T14:13:46;24.80;99.90
16958;DHT22;8595;52.542;11.974;2023-04-09T14:16:13;24.90;99.90
16958;DHT22;8595;52.542;11.974;2023-04-09T14:18:40;24.80;99.90
16958;DHT22;8595;52.542;11.974;2023-04-09T14:21:07;24.90;99.90
16958;DHT22;8595;52.542;11.974;2023-04-09T14:23:35;25.50;99.90
16958;DHT22;8595;52.542;11.974;2023-04-09T14:26:02;25.40;99.90
16958;DHT22;8595;52.542;11.974;2023-04-09T14:28:29;25.30;99.90
16958;DHT22;8595;52.542;11.974;2023-04-09T14:30:56;25.30;99.90
16958;DHT22;8595;52.542;11.974;2023-04-09T14:33:23;25.20;99.90
16958;DHT22;8595;52.542;11.974;2023-04-09T14:35:50;25.30;99.90
16958;DHT22;8595;52.542;11.974;2023-04-09T14:38:17;25.30;99.90
16958;DHT22;8595;52.542;11.974;2023-04-09T14:40:45;25.30;99.90
16958;DHT22;8595;52.542;11.974;2023-04-09T14:43:12;25.30;99.90
16958;DHT22;8595;52.542;11.974;2023-04-09T14:45:39;25.00;99.90
16958;DHT22;8595;52.542;11.974;2023-04-09T14:48:05;24.80;99.90
16958;DHT22;8595;52.542;11.974;2023-04-09T14:50:32;24.40;99.60
16958;DHT22;8595;52.542;11.974;2023-04-09T14:53:00;24.70;99.90
16958;DHT22;8595;52.542;11.974;2023-04-09T14:55:27;24.80;99.90
16958;DHT22;8595;52.542;11.974;2023-04-09T14:57:55;25.00;99.90
16958;DHT22;8595;52.542;11.974;2023-04-09T15:00:22;24.90;99.90
16958;DHT22;8595;52.542;11.974;2023-04-09T15:02:48;24.90;99.90
16958;DHT22;8595;52.542;11.974;2023-04-09T15:05:15;24.40;99.90
16958;DHT22;8595;52.542;11.974;2023-04-09T15:07:43;23.50;99.90
16958;DHT22;8595;52.542;11.974;2023-04-09T15:10:10;23.20;99.90
16958;DHT22;8595;52.542;11.974;2023-04-09T15:12:37;23.20;99.90
16958;DHT22;8595;52.542;11.974;2023-04-09T15:15:06;23.50;99.90
16958;DHT22;8595;52.542;11.974;2023-04-09T15:17:33;22.70;99.90
16958;DHT22;8595;52.542;11.974;2023-04-09T15:20:00;22.70;99.90
16958;DHT22;8595;52.542;11.974;2023-04-09T15:22:28;23.00;99.90
16958;DHT22;8595;52.542;11.974;2023-04-09T15:24:55;23.10;99.90
16958;DHT22;8595;52.542;11.974;2023-04-09T15:27:22;23.20;99.90
16958;DHT22;8595;52.542;11.974;2023-04-09T15:29:48;23.30;99.90
16958;DHT22;8595;52.542;11.974;2023-04-09T15:32:17;23.40;99.90
16958;DHT22;8595;52.542;11.974;2023-04-09T15:34:43;23.30;99.90
16958;DHT22;8595;52.542;11.974;2023-04-09T15:37:10;23.60;99.90
16958;DHT22;8595;52.542;11.974;2023-04-09T15:39:37;23.10;99.90
16958;DHT22;8595;52.542;11.974;2023-04-09T15:42:04;23.20;99.90
16958;DHT22;8595;52.542;11.974;2023-04-09T15:44:30;23.00;99.90